sensor_id;sensor_type;location;lat;lon;timestamp;pressure;altitude;pressure_sealevel;temperature;humidity
4814;BME280;15375;48.540;9.268;2022-12-18T00:02:04;98368.22;;;-10.67;100.00
4814;BME280;15375;48.540;9.268;2022-12-18T00:04:30;98394.59;;;-10.62;100.00
4814;BME280;15375;48.540;9.268;2022-12-18T00:06:56;98399.97;;;-10.42;100.00
4814;BME280;15375;48.540;9.268;2022-12-18T00:09:21;98337.91;;;-10.69;100.00
4814;BME280;15375;48.540;9.268;2022-12-18T00:11:47;98354.28;;;-10.62;100.00
4814;BME280;15375;48.540;9.268;2022-12-18T00:14:13;98398.75;;;-10.24;100.00
4814;BME280;15375;48.540;9.268;2022-12-18T00:16:39;98274.50;;;-10.99;100.00
4814;BME280;15375;48.540;9.268;2022-12-18T00:19:05;98450.13;;;-9.69;100.00
4814;BME280;15375;48.540;9.268;2022-12-18T00:21:31;98319.31;;;-10.43;100.00
4814;BME280;15375;48.540;9.268;2022-12-18T00:23:58;98452.44;;;-9.83;100.00
4814;BME280;15375;48.540;9.268;2022-12-18T00:26:31;98440.56;;;-9.81;100.00
4814;BME280;15375;48.540;9.268;2022-12-18T00:29:09;98431.88;;;-9.76;100.00
4814;BME280;15375;48.540;9.268;2022-12-18T00:31:35;98440.00;;;-9.93;100.00
4814;BME280;15375;48.540;9.268;2022-12-18T00:34:02;98407.78;;;-10.15;100.00
4814;BME280;15375;48.540;9.268;2022-12-18T00:36:30;98337.94;;;-10.59;100.00
4814;BME280;15375;48.540;9.268;2022-12-18T00:38:57;98440.56;;;-9.81;100.00
4814;BME280;15375;48.540;9.268;2022-12-18T00:41:23;98446.88;;;-9.82;100.00
4814;BME280;15375;48.540;9.268;2022-12-18T00:44:09;98444.00;;;-9.85;100.00
4814;BME280;15375;48.540;9.268;2022-12-18T00:46:35;98360.63;;;-10.58;100.00
4814;BME280;15375;48.540;9.268;2022-12-18T00:49:00;98318.72;;;-11.07;100.00
4814;BME280;15375;48.540;9.268;2022-12-18T00:51:26;98472.25;;;-10.43;100.00
4814;BME280;15375;48.540;9.268;2022-12-18T00:53:52;98456.94;;;-10.46;100.00
4814;BME280;15375;48.540;9.268;2022-12-18T00:56:17;98288.06;;;-11.64;100.00
4814;BME280;15375;48.540;9.268;2022-12-18T00:58:43;98317.03;;;-11.59;100.00
4814;BME280;15375;48.540;9.268;2022-12-18T01:01:08;98403.09;;;-10.96;100.00
4814;BME280;15375;48.540;9.268;2022-12-18T01:03:34;98413.44;;;-10.90;100.00
4814;BME280;15375;48.540;9.268;2022-12-18T01:06:04;98379.28;;;-11.12;100.00
4814;BME280;15375;48.540;9.268;2022-12-18T01:08:30;98334.09;;;-11.35;100.00
4814;BME280;15375;48.540;9.268;2022-12-18T01:10:55;98369.66;;;-11.33;100.00
4814;BME280;15375;48.540;9.268;2022-12-18T01:13:21;98334.16;;;-11.57;100.00
4814;BME280;15375;48.540;9.268;2022-12-18T01:15:49;98438.31;;;-11.08;100.00
4814;BME280;15375;48.540;9.268;2022-12-18T01:18:14;98204.81;;;-12.71;100.00
4814;BME280;15375;48.540;9.268;2022-12-18T01:20:40;98257.72;;;-12.36;100.00
4814;BME280;15375;48.540;9.268;2022-12-18T01:23:05;98310.97;;;-11.97;100.00
4814;BME280;15375;48.540;9.268;2022-12-18T01:25:31;98333.84;;;-11.70;100.00
4814;BME280;15375;48.540;9.268;2022-12-18T01:27:56;98341.66;;;-12.02;100.00
4814;BME280;15375;48.540;9.268;2022-12-18T01:30:22;98289.84;;;-12.33;100.00
4814;BME280;15375;48.540;9.268;2022-12-18T01:32:47;98394.31;;;-11.76;100.00
4814;BME280;15375;48.540;9.268;2022-12-18T01:35:13;98310.41;;;-12.25;100.00
4814;BME280;15375;48.540;9.268;2022-12-18T01:37:38;98385.06;;;-11.78;100.00
4814;BME280;15375;48.540;9.268;2022-12-18T01:40:04;98333.59;;;-12.44;100.00
4814;BME280;15375;48.540;9.268;2022-12-18T01:42:30;98396.16;;;-11.98;100.00
4814;BME280;15375;48.540;9.268;2022-12-18T01:44:59;98454.38;;;-11.62;100.00
4814;BME280;15375;48.540;9.268;2022-12-18T01:50:19;98463.28;;;-11.42;100.00
4814;BME280;15375;48.540;9.268;2022-12-18T01:52:58;98376.13;;;-12.25;100.00
4814;BME280;15375;48.540;9.268;2022-12-18T01:55:26;98394.34;;;-12.19;100.00
4814;BME280;15375;48.540;9.268;2022-12-18T01:57:55;98380.59;;;-12.26;100.00
4814;BME280;15375;48.540;9.268;2022-12-18T02:00:23;98377.78;;;-12.19;100.00
4814;BME280;15375;48.540;9.268;2022-12-18T02:02:49;98424.88;;;-11.64;100.00
4814;BME280;15375;48.540;9.268;2022-12-18T02:05:33;98450.22;;;-11.32;100.00
4814;BME280;15375;48.540;9.268;2022-12-18T02:11:14;98360.13;;;-11.97;100.00
4814;BME280;15375;48.540;9.268;2022-12-18T02:18:57;98394.16;;;-11.59;100.00
4814;BME280;15375;48.540;9.268;2022-12-18T02:21:40;98460.88;;;-11.17;100.00
4814;BME280;15375;48.540;9.268;2022-12-18T02:26:43;98291.50;;;-12.22;100.00
4814;BME280;15375;48.540;9.268;2022-12-18T02:29:16;98365.84;;;-11.79;100.00
4814;BME280;15375;48.540;9.268;2022-12-18T02:31:50;98346.31;;;-11.83;100.00
4814;BME280;15375;48.540;9.268;2022-12-18T02:34:18;98455.88;;;-11.18;100.00
4814;BME280;15375;48.540;9.268;2022-12-18T02:36:47;98382.59;;;-11.58;100.00
4814;BME280;15375;48.540;9.268;2022-12-18T02:39:13;98392.31;;;-11.58;100.00
4814;BME280;15375;48.540;9.268;2022-12-18T02:41:40;98369.34;;;-11.73;100.00
4814;BME280;15375;48.540;9.268;2022-12-18T02:44:09;98450.78;;;-11.25;100.00
4814;BME280;15375;48.540;9.268;2022-12-18T02:46:47;98404.03;;;-11.76;100.00
4814;BME280;15375;48.540;9.268;2022-12-18T02:52:34;98430.06;;;-11.75;100.00
4814;BME280;15375;48.540;9.268;2022-12-18T02:58:14;98479.41;;;-11.60;100.00
4814;BME280;15375;48.540;9.268;2022-12-18T03:03:47;98389.47;;;-12.32;100.00
4814;BME280;15375;48.540;9.268;2022-12-18T03:06:19;98488.84;;;-11.64;100.00
4814;BME280;15375;48.540;9.268;2022-12-18T03:08:49;98362.56;;;-12.39;100.00
4814;BME280;15375;48.540;9.268;2022-12-18T03:11:16;98354.00;;;-12.29;100.00
4814;BME280;15375;48.540;9.268;2022-12-18T03:14:03;98427.09;;;-11.83;100.00
4814;BME280;15375;48.540;9.268;2022-12-18T03:16:31;98420.94;;;-11.94;100.00
4814;BME280;15375;48.540;9.268;2022-12-18T03:19:02;98456.44;;;-11.69;100.00
4814;BME280;15375;48.540;9.268;2022-12-18T03:21:47;98360.06;;;-12.29;100.00
4814;BME280;15375;48.540;9.268;2022-12-18T03:24:15;98380.22;;;-12.13;100.00
4814;BME280;15375;48.540;9.268;2022-12-18T03:26:44;98478.91;;;-11.57;100.00
4814;BME280;15375;48.540;9.268;2022-12-18T03:29:18;98365.06;;;-12.27;100.00
4814;BME280;15375;48.540;9.268;2022-12-18T03:31:51;98410.53;;;-12.05;100.00
4814;BME280;15375;48.540;9.268;2022-12-18T03:34:26;98398.38;;;-12.11;100.00
4814;BME280;15375;48.540;9.268;2022-12-18T03:36:54;98427.88;;;-11.83;100.00
4814;BME280;15375;48.540;9.268;2022-12-18T03:39:20;98369.88;;;-12.19;100.00
4814;BME280;15375;48.540;9.268;2022-12-18T03:41:58;98426.69;;;-11.70;100.00
4814;BME280;15375;48.540;9.268;2022-12-18T03:44:34;98383.41;;;-11.84;100.00
4814;BME280;15375;48.540;9.268;2022-12-18T03:47:08;98456.22;;;-11.36;100.00
4814;BME280;15375;48.540;9.268;2022-12-18T03:52:07;98439.38;;;-11.62;100.00
4814;BME280;15375;48.540;9.268;2022-12-18T03:54:35;98441.00;;;-11.61;100.00
4814;BME280;15375;48.540;9.268;2022-12-18T03:57:07;98421.28;;;-11.58;100.00
4814;BME280;15375;48.540;9.268;2022-12-18T03:59:35;98398.88;;;-11.88;100.00
4814;BME280;15375;48.540;9.268;2022-12-18T04:02:02;98433.94;;;-11.55;100.00
4814;BME280;15375;48.540;9.268;2022-12-18T04:04:30;98469.94;;;-11.34;100.00
4814;BME280;15375;48.540;9.268;2022-12-18T04:06:57;98402.91;;;-11.80;100.00
4814;BME280;15375;48.540;9.268;2022-12-18T04:09:23;98339.69;;;-12.17;100.00
4814;BME280;15375;48.540;9.268;2022-12-18T04:11:51;98482.56;;;-11.36;100.00
4814;BME280;15375;48.540;9.268;2022-12-18T04:14:16;98434.94;;;-11.88;100.00
4814;BME280;15375;48.540;9.268;2022-12-18T04:16:42;98411.75;;;-11.91;100.00
4814;BME280;15375;48.540;9.268;2022-12-18T04:19:07;98462.78;;;-11.65;100.00
4814;BME280;15375;48.540;9.268;2022-12-18T04:21:32;98471.31;;;-11.53;100.00
4814;BME280;15375;48.540;9.268;2022-12-18T04:23:58;98463.91;;;-11.56;100.00
4814;BME280;15375;48.540;9.268;2022-12-18T04:26:23;98452.59;;;-11.57;100.00
4814;BME280;15375;48.540;9.268;2022-12-18T04:28:49;98425.81;;;-11.81;100.00
4814;BME280;15375;48.540;9.268;2022-12-18T04:31:14;98430.88;;;-11.74;100.00
4814;BME280;15375;48.540;9.268;2022-12-18T04:33:40;98446.53;;;-11.57;100.00
4814;BME280;15375;48.540;9.268;2022-12-18T04:36:05;98434.94;;;-11.88;100.00
4814;BME280;15375;48.540;9.268;2022-12-18T04:38:31;98361.28;;;-12.37;100.00
4814;BME280;15375;48.540;9.268;2022-12-18T04:40:56;98430.97;;;-12.12;100.00
4814;BME280;15375;48.540;9.268;2022-12-18T04:43:22;98504.44;;;-11.84;100.00
4814;BME280;15375;48.540;9.268;2022-12-18T04:45:47;98379.97;;;-12.55;100.00
4814;BME280;15375;48.540;9.268;2022-12-18T04:48:12;98425.03;;;-12.24;100.00
4814;BME280;15375;48.540;9.268;2022-12-18T04:50:38;98407.97;;;-12.22;100.00
4814;BME280;15375;48.540;9.268;2022-12-18T04:53:03;98412.81;;;-12.36;100.00
4814;BME280;15375;48.540;9.268;2022-12-18T04:55:29;98339.72;;;-12.82;100.00
4814;BME280;15375;48.540;9.268;2022-12-18T04:57:54;98430.47;;;-12.09;100.00
4814;BME280;15375;48.540;9.268;2022-12-18T05:00:20;98375.94;;;-12.41;100.00
4814;BME280;15375;48.540;9.268;2022-12-18T05:02:46;98405.50;;;-12.33;100.00
4814;BME280;15375;48.540;9.268;2022-12-18T05:05:11;98361.94;;;-12.68;100.00
4814;BME280;15375;48.540;9.268;2022-12-18T05:07:37;98310.75;;;-12.87;100.00
4814;BME280;15375;48.540;9.268;2022-12-18T05:10:03;98470.28;;;-11.79;100.00
4814;BME280;15375;48.540;9.268;2022-12-18T05:12:28;98441.66;;;-11.97;100.00
4814;BME280;15375;48.540;9.268;2022-12-18T05:14:54;98351.91;;;-12.71;100.00
4814;BME280;15375;48.540;9.268;2022-12-18T05:17:19;98404.91;;;-12.36;100.00
4814;BME280;15375;48.540;9.268;2022-12-18T05:19:44;98403.22;;;-12.25;100.00
4814;BME280;15375;48.540;9.268;2022-12-18T05:22:10;98379.69;;;-12.37;100.00
4814;BME280;15375;48.540;9.268;2022-12-18T05:24:35;98419.66;;;-12.13;100.00
4814;BME280;15375;48.540;9.268;2022-12-18T05:27:01;98425.38;;;-12.21;100.00
4814;BME280;15375;48.540;9.268;2022-12-18T05:29:26;98415.13;;;-12.17;100.00
4814;BME280;15375;48.540;9.268;2022-12-18T05:31:52;98386.72;;;-12.42;100.00
4814;BME280;15375;48.540;9.268;2022-12-18T05:34:17;98382.00;;;-13.00;100.00
4814;BME280;15375;48.540;9.268;2022-12-18T05:36:43;98406.09;;;-12.86;100.00
4814;BME280;15375;48.540;9.268;2022-12-18T05:39:08;98390.09;;;-12.85;100.00
4814;BME280;15375;48.540;9.268;2022-12-18T05:41:34;98381.59;;;-12.92;100.00
4814;BME280;15375;48.540;9.268;2022-12-18T05:43:59;98400.81;;;-12.70;100.00
4814;BME280;15375;48.540;9.268;2022-12-18T05:46:25;98487.53;;;-12.31;100.00
4814;BME280;15375;48.540;9.268;2022-12-18T05:48:50;98407.84;;;-12.92;100.00
4814;BME280;15375;48.540;9.268;2022-12-18T05:51:18;98473.56;;;-12.54;100.00
4814;BME280;15375;48.540;9.268;2022-12-18T05:53:44;98478.81;;;-12.54;100.00
4814;BME280;15375;48.540;9.268;2022-12-18T05:56:15;98395.38;;;-13.02;100.00
4814;BME280;15375;48.540;9.268;2022-12-18T05:58:41;98425.25;;;-12.86;100.00
4814;BME280;15375;48.540;9.268;2022-12-18T06:01:11;98480.38;;;-12.53;100.00
4814;BME280;15375;48.540;9.268;2022-12-18T06:03:37;98321.69;;;-13.67;100.00
4814;BME280;15375;48.540;9.268;2022-12-18T06:06:02;98392.44;;;-13.05;100.00
4814;BME280;15375;48.540;9.268;2022-12-18T06:08:28;98363.06;;;-13.57;100.00
4814;BME280;15375;48.540;9.268;2022-12-18T06:10:53;98371.00;;;-13.52;100.00
4814;BME280;15375;48.540;9.268;2022-12-18T06:13:19;98447.09;;;-13.02;100.00
4814;BME280;15375;48.540;9.268;2022-12-18T06:15:45;98397.88;;;-13.28;100.00
4814;BME280;15375;48.540;9.268;2022-12-18T06:18:10;98358.28;;;-13.43;100.00
4814;BME280;15375;48.540;9.268;2022-12-18T06:20:36;98387.84;;;-13.31;100.00
4814;BME280;15375;48.540;9.268;2022-12-18T06:23:02;98401.94;;;-13.37;100.00
4814;BME280;15375;48.540;9.268;2022-12-18T06:25:27;98407.09;;;-13.42;100.00
4814;BME280;15375;48.540;9.268;2022-12-18T06:27:53;98323.44;;;-13.89;100.00
4814;BME280;15375;48.540;9.268;2022-12-18T06:30:20;98426.66;;;-13.33;100.00
4814;BME280;15375;48.540;9.268;2022-12-18T06:32:45;98418.88;;;-13.28;100.00
4814;BME280;15375;48.540;9.268;2022-12-18T06:35:11;98451.72;;;-13.09;100.00
4814;BME280;15375;48.540;9.268;2022-12-18T06:37:36;98358.06;;;-13.87;100.00
4814;BME280;15375;48.540;9.268;2022-12-18T06:40:01;98435.72;;;-13.41;100.00
4814;BME280;15375;48.540;9.268;2022-12-18T06:42:28;98462.47;;;-13.27;100.00
4814;BME280;15375;48.540;9.268;2022-12-18T06:44:53;98384.97;;;-13.80;100.00
4814;BME280;15375;48.540;9.268;2022-12-18T06:47:19;98400.50;;;-13.90;100.00
4814;BME280;15375;48.540;9.268;2022-12-18T06:49:44;98401.25;;;-13.78;100.00
4814;BME280;15375;48.540;9.268;2022-12-18T06:52:10;98407.78;;;-13.63;100.00
4814;BME280;15375;48.540;9.268;2022-12-18T06:54:35;98455.06;;;-13.30;100.00
4814;BME280;15375;48.540;9.268;2022-12-18T06:57:00;98473.13;;;-13.17;100.00
4814;BME280;15375;48.540;9.268;2022-12-18T06:59:26;98423.41;;;-13.40;100.00
4814;BME280;15375;48.540;9.268;2022-12-18T07:01:51;98425.94;;;-13.45;100.00
4814;BME280;15375;48.540;9.268;2022-12-18T07:04:17;98484.94;;;-12.98;100.00
4814;BME280;15375;48.540;9.268;2022-12-18T07:06:42;98383.19;;;-13.91;100.00
4814;BME280;15375;48.540;9.268;2022-12-18T07:09:07;98447.25;;;-13.42;100.00
4814;BME280;15375;48.540;9.268;2022-12-18T07:11:33;98417.88;;;-13.55;100.00
4814;BME280;15375;48.540;9.268;2022-12-18T07:13:59;98483.16;;;-13.14;100.00
4814;BME280;15375;48.540;9.268;2022-12-18T07:16:24;98478.69;;;-13.14;100.00
4814;BME280;15375;48.540;9.268;2022-12-18T07:18:49;98478.03;;;-13.21;100.00
4814;BME280;15375;48.540;9.268;2022-12-18T07:21:18;98419.59;;;-13.78;100.00
4814;BME280;15375;48.540;9.268;2022-12-18T07:23:44;98482.19;;;-13.25;100.00
4814;BME280;15375;48.540;9.268;2022-12-18T07:26:12;98517.66;;;-13.06;100.00
4814;BME280;15375;48.540;9.268;2022-12-18T07:28:39;98505.00;;;-13.25;100.00
4814;BME280;15375;48.540;9.268;2022-12-18T07:31:17;98460.72;;;-13.95;99.69
4814;BME280;15375;48.540;9.268;2022-12-18T07:33:43;98515.50;;;-13.53;100.00
4814;BME280;15375;48.540;9.268;2022-12-18T07:36:10;98468.66;;;-13.61;100.00
4814;BME280;15375;48.540;9.268;2022-12-18T07:38:36;98401.34;;;-14.01;100.00
4814;BME280;15375;48.540;9.268;2022-12-18T07:41:03;98530.47;;;-12.92;100.00
4814;BME280;15375;48.540;9.268;2022-12-18T07:43:28;98427.03;;;-13.58;100.00
4814;BME280;15375;48.540;9.268;2022-12-18T07:45:54;98462.16;;;-13.14;100.00
4814;BME280;15375;48.540;9.268;2022-12-18T07:48:19;98460.44;;;-13.04;100.00
4814;BME280;15375;48.540;9.268;2022-12-18T07:50:45;98482.34;;;-12.81;100.00
4814;BME280;15375;48.540;9.268;2022-12-18T07:53:10;98458.91;;;-12.83;99.92
4814;BME280;15375;48.540;9.268;2022-12-18T07:55:35;98426.59;;;-12.67;100.00
4814;BME280;15375;48.540;9.268;2022-12-18T07:58:03;98479.97;;;-12.06;99.25
4814;BME280;15375;48.540;9.268;2022-12-18T08:00:30;98450.47;;;-11.87;97.18
4814;BME280;15375;48.540;9.268;2022-12-18T08:02:55;98402.47;;;-12.20;93.76
4814;BME280;15375;48.540;9.268;2022-12-18T08:05:21;98482.78;;;-11.64;94.16
4814;BME280;15375;48.540;9.268;2022-12-18T08:07:46;98496.41;;;-11.46;93.53
4814;BME280;15375;48.540;9.268;2022-12-18T08:10:12;98437.16;;;-12.02;93.40
4814;BME280;15375;48.540;9.268;2022-12-18T08:12:38;98522.84;;;-11.36;94.05
4814;BME280;15375;48.540;9.268;2022-12-18T08:15:04;98496.75;;;-11.37;94.49
4814;BME280;15375;48.540;9.268;2022-12-18T08:17:33;98474.59;;;-11.41;94.29
4814;BME280;15375;48.540;9.268;2022-12-18T08:19:59;98469.88;;;-11.66;93.44
4814;BME280;15375;48.540;9.268;2022-12-18T08:22:24;98474.13;;;-11.60;93.62
4814;BME280;15375;48.540;9.268;2022-12-18T08:24:50;98420.22;;;-12.32;91.17
4814;BME280;15375;48.540;9.268;2022-12-18T08:27:15;98483.25;;;-11.94;93.91
4814;BME280;15375;48.540;9.268;2022-12-18T08:29:41;98466.06;;;-11.80;95.75
4814;BME280;15375;48.540;9.268;2022-12-18T08:32:06;98545.47;;;-11.35;96.83
4814;BME280;15375;48.540;9.268;2022-12-18T08:34:31;98470.66;;;-11.70;96.66
4814;BME280;15375;48.540;9.268;2022-12-18T08:36:57;98524.56;;;-11.20;97.45
4814;BME280;15375;48.540;9.268;2022-12-18T08:39:22;98542.03;;;-11.14;98.48
4814;BME280;15375;48.540;9.268;2022-12-18T08:41:47;98464.72;;;-11.56;98.05
4814;BME280;15375;48.540;9.268;2022-12-18T08:44:33;98517.75;;;-11.42;99.76
4814;BME280;15375;48.540;9.268;2022-12-18T08:47:05;98452.50;;;-11.67;100.00
4814;BME280;15375;48.540;9.268;2022-12-18T08:49:31;98526.84;;;-11.01;100.00
4814;BME280;15375;48.540;9.268;2022-12-18T08:51:56;98522.44;;;-10.64;100.00
4814;BME280;15375;48.540;9.268;2022-12-18T08:54:22;98390.94;;;-11.02;99.60
4814;BME280;15375;48.540;9.268;2022-12-18T08:56:48;98497.69;;;-10.16;96.37
4814;BME280;15375;48.540;9.268;2022-12-18T08:59:15;98520.75;;;-9.92;96.47
4814;BME280;15375;48.540;9.268;2022-12-18T09:01:40;98431.41;;;-10.35;96.32
4814;BME280;15375;48.540;9.268;2022-12-18T09:04:05;98464.34;;;-9.76;96.16
4814;BME280;15375;48.540;9.268;2022-12-18T09:06:31;98434.06;;;-9.33;97.60
4814;BME280;15375;48.540;9.268;2022-12-18T09:08:56;98411.09;;;-8.82;94.61
4814;BME280;15375;48.540;9.268;2022-12-18T09:11:24;98513.16;;;-7.56;91.99
4814;BME280;15375;48.540;9.268;2022-12-18T09:13:51;98507.13;;;-7.77;87.97
4814;BME280;15375;48.540;9.268;2022-12-18T09:16:16;98445.31;;;-7.52;86.42
4814;BME280;15375;48.540;9.268;2022-12-18T09:18:42;98491.56;;;-6.52;84.42
4814;BME280;15375;48.540;9.268;2022-12-18T09:21:13;98478.75;;;-6.21;81.70
4814;BME280;15375;48.540;9.268;2022-12-18T09:23:39;98439.97;;;-5.94;77.93
4814;BME280;15375;48.540;9.268;2022-12-18T09:26:05;98470.56;;;-5.17;78.58
4814;BME280;15375;48.540;9.268;2022-12-18T09:28:30;98502.34;;;-5.06;77.84
4814;BME280;15375;48.540;9.268;2022-12-18T09:30:56;98455.56;;;-4.75;75.65
4814;BME280;15375;48.540;9.268;2022-12-18T09:33:21;98410.72;;;-4.82;74.39
4814;BME280;15375;48.540;9.268;2022-12-18T09:35:46;98440.44;;;-4.61;69.93
4814;BME280;15375;48.540;9.268;2022-12-18T09:38:14;98444.53;;;-4.36;70.64
4814;BME280;15375;48.540;9.268;2022-12-18T09:40:46;98473.06;;;-4.10;68.26
4814;BME280;15375;48.540;9.268;2022-12-18T09:43:28;98469.44;;;-4.14;71.22
4814;BME280;15375;48.540;9.268;2022-12-18T09:45:59;98468.38;;;-4.77;67.90
4814;BME280;15375;48.540;9.268;2022-12-18T09:48:29;98490.28;;;-3.89;70.61
4814;BME280;15375;48.540;9.268;2022-12-18T09:51:01;98467.47;;;-3.81;69.64
4814;BME280;15375;48.540;9.268;2022-12-18T09:53:32;98465.19;;;-3.47;66.61
4814;BME280;15375;48.540;9.268;2022-12-18T09:56:01;98451.50;;;-3.18;66.92
4814;BME280;15375;48.540;9.268;2022-12-18T09:58:35;98467.31;;;-2.86;62.15
4814;BME280;15375;48.540;9.268;2022-12-18T10:01:02;98491.66;;;-2.65;63.13
4814;BME280;15375;48.540;9.268;2022-12-18T10:03:27;98431.94;;;-3.63;65.43
4814;BME280;15375;48.540;9.268;2022-12-18T10:06:05;98482.28;;;-2.76;67.71
4814;BME280;15375;48.540;9.268;2022-12-18T10:09:09;98479.34;;;-1.91;65.50
4814;BME280;15375;48.540;9.268;2022-12-18T10:12:05;98485.50;;;-1.90;61.72
4814;BME280;15375;48.540;9.268;2022-12-18T10:17:28;98457.94;;;-1.52;62.00
4814;BME280;15375;48.540;9.268;2022-12-18T10:20:16;98459.28;;;-2.11;64.85
4814;BME280;15375;48.540;9.268;2022-12-18T10:26:02;98487.44;;;-1.26;64.10
4814;BME280;15375;48.540;9.268;2022-12-18T10:28:30;98496.63;;;-1.66;61.60
4814;BME280;15375;48.540;9.268;2022-12-18T10:30:56;98448.28;;;-1.70;64.30
4814;BME280;15375;48.540;9.268;2022-12-18T10:33:23;98455.81;;;-1.24;63.82
4814;BME280;15375;48.540;9.268;2022-12-18T10:35:53;98468.06;;;-1.23;62.54
4814;BME280;15375;48.540;9.268;2022-12-18T10:43:19;98472.97;;;-1.81;68.56
4814;BME280;15375;48.540;9.268;2022-12-18T10:51:00;98447.63;;;-0.93;64.33
4814;BME280;15375;48.540;9.268;2022-12-18T10:53:28;98407.13;;;-1.00;63.36
4814;BME280;15375;48.540;9.268;2022-12-18T10:55:57;98460.41;;;-0.01;61.88
4814;BME280;15375;48.540;9.268;2022-12-18T10:58:31;98444.44;;;-0.35;58.15
4814;BME280;15375;48.540;9.268;2022-12-18T11:01:12;98402.66;;;-1.73;64.67
4814;BME280;15375;48.540;9.268;2022-12-18T11:03:59;98478.34;;;-0.99;66.56
4814;BME280;15375;48.540;9.268;2022-12-18T11:06:26;98489.50;;;-0.37;65.51
4814;BME280;15375;48.540;9.268;2022-12-18T11:09:06;98468.50;;;-0.27;61.78
4814;BME280;15375;48.540;9.268;2022-12-18T11:11:49;98477.53;;;-0.31;64.55
4814;BME280;15375;48.540;9.268;2022-12-18T11:14:34;98464.91;;;-0.39;64.04
4814;BME280;15375;48.540;9.268;2022-12-18T11:17:31;98436.09;;;-1.37;65.81
4814;BME280;15375;48.540;9.268;2022-12-18T11:20:04;98441.31;;;-1.14;66.00
4814;BME280;15375;48.540;9.268;2022-12-18T11:22:33;98418.00;;;-1.05;69.44
4814;BME280;15375;48.540;9.268;2022-12-18T11:25:02;98460.75;;;-2.05;71.21
4814;BME280;15375;48.540;9.268;2022-12-18T11:27:30;98449.44;;;-1.54;73.09
4814;BME280;15375;48.540;9.268;2022-12-18T11:30:09;98462.47;;;-1.61;71.11
4814;BME280;15375;48.540;9.268;2022-12-18T11:32:43;98441.97;;;-1.09;68.27
4814;BME280;15375;48.540;9.268;2022-12-18T11:35:19;98437.84;;;-0.98;67.37
4814;BME280;15375;48.540;9.268;2022-12-18T11:38:06;98418.78;;;-1.31;68.74
4814;BME280;15375;48.540;9.268;2022-12-18T11:40:36;98454.81;;;-1.45;71.78
4814;BME280;15375;48.540;9.268;2022-12-18T11:43:16;98453.53;;;-1.56;74.29
4814;BME280;15375;48.540;9.268;2022-12-18T11:45:52;98399.75;;;-2.03;72.80
4814;BME280;15375;48.540;9.268;2022-12-18T11:50:55;98422.78;;;-1.84;77.81
4814;BME280;15375;48.540;9.268;2022-12-18T11:53:21;98437.50;;;-1.56;78.07
4814;BME280;15375;48.540;9.268;2022-12-18T12:01:52;98448.66;;;-2.02;76.84
4814;BME280;15375;48.540;9.268;2022-12-18T12:04:26;98454.00;;;-1.94;79.03
4814;BME280;15375;48.540;9.268;2022-12-18T12:16:03;98414.59;;;-2.19;80.55
4814;BME280;15375;48.540;9.268;2022-12-18T12:18:54;98424.19;;;-1.87;80.04
4814;BME280;15375;48.540;9.268;2022-12-18T12:21:49;98414.72;;;-2.32;79.71
4814;BME280;15375;48.540;9.268;2022-12-18T12:30:00;98380.91;;;-2.37;84.33
4814;BME280;15375;48.540;9.268;2022-12-18T12:32:49;98398.81;;;-2.37;82.17
4814;BME280;15375;48.540;9.268;2022-12-18T12:38:04;98413.41;;;-2.66;86.32
4814;BME280;15375;48.540;9.268;2022-12-18T12:40:38;98420.63;;;-2.66;88.55
4814;BME280;15375;48.540;9.268;2022-12-18T12:43:19;98401.28;;;-2.49;89.95
4814;BME280;15375;48.540;9.268;2022-12-18T12:45:57;98404.84;;;-2.54;87.74
4814;BME280;15375;48.540;9.268;2022-12-18T12:51:06;98351.91;;;-2.83;89.84
4814;BME280;15375;48.540;9.268;2022-12-18T12:53:35;98400.25;;;-2.31;88.79
4814;BME280;15375;48.540;9.268;2022-12-18T12:56:03;98352.84;;;-2.87;86.69
4814;BME280;15375;48.540;9.268;2022-12-18T12:58:43;98398.06;;;-2.60;88.71
4814;BME280;15375;48.540;9.268;2022-12-18T13:07:12;98451.84;;;-2.97;90.87
4814;BME280;15375;48.540;9.268;2022-12-18T13:12:36;98437.13;;;-2.64;95.74
4814;BME280;15375;48.540;9.268;2022-12-18T13:15:22;98447.91;;;-2.25;94.58
4814;BME280;15375;48.540;9.268;2022-12-18T13:17:49;98380.06;;;-2.46;92.18
4814;BME280;15375;48.540;9.268;2022-12-18T13:20:35;98444.72;;;-2.05;91.36
4814;BME280;15375;48.540;9.268;2022-12-18T13:26:00;98424.31;;;-1.92;90.54
4814;BME280;15375;48.540;9.268;2022-12-18T13:33:40;98463.06;;;-2.42;95.27
4814;BME280;15375;48.540;9.268;2022-12-18T13:38:41;98362.53;;;-3.13;98.57
4814;BME280;15375;48.540;9.268;2022-12-18T13:43:44;98457.66;;;-2.73;99.07
4814;BME280;15375;48.540;9.268;2022-12-18T13:51:21;98322.84;;;-3.73;100.00
4814;BME280;15375;48.540;9.268;2022-12-18T13:54:01;98419.47;;;-3.18;100.00
4814;BME280;15375;48.540;9.268;2022-12-18T13:56:30;98441.03;;;-2.92;100.00
4814;BME280;15375;48.540;9.268;2022-12-18T14:01:35;98429.53;;;-2.48;100.00
4814;BME280;15375;48.540;9.268;2022-12-18T14:04:16;98433.44;;;-2.24;100.00
4814;BME280;15375;48.540;9.268;2022-12-18T14:06:45;98442.22;;;-2.32;99.65
4814;BME280;15375;48.540;9.268;2022-12-18T14:09:17;98423.03;;;-2.34;99.51
4814;BME280;15375;48.540;9.268;2022-12-18T14:11:49;98403.94;;;-2.49;97.99
4814;BME280;15375;48.540;9.268;2022-12-18T14:14:16;98436.25;;;-2.29;98.02
4814;BME280;15375;48.540;9.268;2022-12-18T14:16:42;98402.50;;;-2.55;98.00
4814;BME280;15375;48.540;9.268;2022-12-18T14:19:13;98360.59;;;-2.77;97.24
4814;BME280;15375;48.540;9.268;2022-12-18T14:21:40;98407.25;;;-2.75;96.13
4814;BME280;15375;48.540;9.268;2022-12-18T14:26:33;98429.72;;;-3.11;100.00
4814;BME280;15375;48.540;9.268;2022-12-18T14:29:10;98452.69;;;-3.24;100.00
4814;BME280;15375;48.540;9.268;2022-12-18T14:31:42;98436.03;;;-3.43;100.00
4814;BME280;15375;48.540;9.268;2022-12-18T14:34:15;98445.66;;;-3.56;100.00
4814;BME280;15375;48.540;9.268;2022-12-18T14:36:52;98424.31;;;-3.69;100.00
4814;BME280;15375;48.540;9.268;2022-12-18T14:39:18;98414.66;;;-3.79;100.00
4814;BME280;15375;48.540;9.268;2022-12-18T14:41:43;98375.72;;;-4.16;100.00
4814;BME280;15375;48.540;9.268;2022-12-18T14:44:12;98407.94;;;-3.90;100.00
4814;BME280;15375;48.540;9.268;2022-12-18T14:46:44;98423.44;;;-3.78;100.00
4814;BME280;15375;48.540;9.268;2022-12-18T14:49:24;98445.75;;;-3.61;100.00
4814;BME280;15375;48.540;9.268;2022-12-18T14:51:55;98419.88;;;-3.74;100.00